• Join FlightAware (Why Join?)
  • Login
  • US Flag 
10:52PM EST


 

Airport Tracker/Info


-or-


 

Live Flight TrackerFlight Track Log ✈ DAL6036 ✈ 24-Apr-2013 ✈ KRIC - KDTW

Flight Track Log - Related Links

Times and Time Zones

All times are in EDT time to prevent confusion due to time zone crossing. See the DAL6036 flight status page for this flight to view local times or setup timezone preferences in your user account.

Time Position Orientation Groundspeed Altitude Reporting Facility
EDT Latitude Longitude Course Direction KTS MPH feet Rate Location/Type
05:36PM 37.4667 -77.3000 291° West 162 186 2,000  Level Potomac TRACON
05:37PM 37.4844 -77.3583 291° West 228 262 3,100 1,980 Climbing Washington Center
05:38PM 37.5294 -77.4222 312° West 233 268 5,800 2,400 Climbing Washington Center
05:39PM 37.5742 -77.4914 309° West 240 276 8,000 1,980 Climbing Washington Center
05:40PM 37.6211 -77.5608 310° West 246 283 9,800 1,500 Climbing Washington Center
05:41PM 37.6342 -77.6478 281° West 251 289 11,000 1,140 Climbing Washington Center
05:42PM 37.6239 -77.7550 263° West 273 314 12,100 1,080 Climbing Washington Center
05:43PM 37.6136 -77.8622 263° West 296 341 13,200 1,140 Climbing Washington Center
05:44PM 37.6053 -77.9772 265° West 315 362 14,400 1,200 Climbing Washington Center
05:45PM 37.6428 -78.0781 295° West 311 358 15,600 1,200 Climbing Washington Center
05:46PM 37.7531 -78.0947 353° North 299 344 16,800 1,140 Climbing Washington Center
05:47PM 37.8653 -78.1064 355° North 345 397 17,900 1,200 Climbing Washington Center
05:48PM 37.9756 -78.1181 355° North 375 432 19,200 1,260 Climbing Washington Center
05:49PM 38.0922 -78.1353 353° North 399 459 20,500 1,200 Climbing Washington Center
05:50PM 38.2067 -78.1444 356° North 407 468 21,700 1,200 Climbing Washington Center
05:51PM 38.3211 -78.1536 356° North 412 474 22,900 1,200 Climbing Washington Center
05:52PM 38.4314 -78.1678 354° North 406 467 24,100 1,200 Climbing Washington Center
05:53PM 38.5458 -78.1772 356° North 406 467 25,300 1,080 Climbing Washington Center
05:54PM 38.6603 -78.1892 355° North 406 467 26,300 960 Climbing Washington Center
05:55PM 38.7725 -78.2011 355° North 406 467 27,300 840 Climbing Washington Center
05:56PM 38.8869 -78.2106 356° North 406 467 28,000 300 Climbing Washington Center
05:57PM 39.0056 -78.2256 354° North 406 467 28,000  Level Washington Center
05:58PM 39.1303 -78.2406 355° North 425 489 28,000  Level Washington Center
05:59PM 39.2675 -78.2536 356° North 440 506 28,000  Level Washington Center
06:00PM 39.3986 -78.2667 356° North 451 519 28,000  Level Washington Center
06:02PM 39.6919 -78.3033 355° North 480 552 28,000  Level Cleveland Center
06:03PM 39.8383 -78.3228 354° North 480 552 28,000  Level Cleveland Center
06:04PM 39.9483 -78.4003 332° Northwest 453 521 28,000  Level Cleveland Center
06:05PM 40.0092 -78.5339 301° West 415 478 28,000  Level Cleveland Center
06:06PM 40.0614 -78.6681 297° West 410 472 28,000  Level Cleveland Center
06:07PM 40.1139 -78.8050 297° West 415 478 28,000  Level Cleveland Center
06:08PM 40.1678 -78.9394 298° West 420 483 28,000  Level Cleveland Center
06:09PM 40.2197 -79.0742 297° West 420 483 28,000  Level Cleveland Center
06:10PM 40.2714 -79.2089 297° West 420 483 28,000  Level Cleveland Center
06:11PM 40.3208 -79.3278 299° West 420 483 28,000  Level Cleveland Center
06:12PM 40.3722 -79.4631 297° West 420 483 28,000  Level Cleveland Center
06:13PM 40.4214 -79.5958 296° West 420 483 28,000  Level Cleveland Center
06:14PM 40.4725 -79.7289 297° West 414 476 28,000  Level Cleveland Center
06:15PM 40.5214 -79.8592 296° West 409 471 28,000  Level Cleveland Center
06:16PM 40.5764 -80.0036 297° West 404 465 28,000  Level Cleveland Center
06:17PM 40.6228 -80.1344 295° West 404 465 28,000  Level Cleveland Center
06:18PM 40.6714 -80.2600 297° West 399 459 28,000  Level Cleveland Center
06:19PM 40.7194 -80.3914 296° West 399 459 28,000  Level Cleveland Center
06:20PM 40.7614 -80.5036 296° West 394 453 28,000  Level Cleveland Center
06:21PM 40.8156 -80.6325 299° West 394 453 28,000  Level Cleveland Center
06:22PM 40.8758 -80.7644 301° West 387 445 28,000  Level Cleveland Center
06:23PM 40.9297 -80.8853 301° West 387 445 28,000 -300 Level Cleveland Center
06:24PM 40.9836 -81.0122 299° West 392 451 27,400 -720 Descending Cleveland Center
06:25PM 41.0311 -81.1308 298° West 398 458 26,600 -900 Descending Cleveland Center
06:26PM 41.0928 -81.2747 300° West 403 464 25,600 -1,020 Descending Cleveland Center
06:27PM 41.1503 -81.4022 301° West 408 470 24,600 -840 Descending Cleveland Center
06:28PM 41.2014 -81.5214 300° West 391 450 24,000 -300 Descending Cleveland Center
06:29PM 41.2547 -81.6464 300° West 391 450 24,000  Level Cleveland Center
06:30PM 41.3075 -81.7689 300° West 391 450 24,000  Level Cleveland Center
06:31PM 41.3606 -81.8944 299° West 391 450 24,000  Level Cleveland Center
06:32PM 41.4089 -82.0144 298° West 401 461 24,000 -60 Level Cleveland Center
06:33PM 41.4594 -82.1375 299° West 396 456 23,900 -1,200 Descending Cleveland Center
06:34PM 41.5161 -82.2719 299° West 396 456 21,700 -2,400 Descending Cleveland Center
06:35PM 41.5661 -82.3953 298° West 391 450 19,100 -2,460 Descending Cleveland Center
06:36PM 41.6144 -82.5133 299° West 376 433 16,800 -2,520 Descending Cleveland Center
06:36PM 41.6283 -82.5472 299° West 358 412 16,000 -2,400 Descending Cleveland Center
06:37PM 41.6564 -82.6147 299° West 364 419 14,400 -2,460 Descending Cleveland Center
06:37PM 41.6744 -82.6569 300° West 348 400 13,500 -2,220 Descending Cleveland Center
06:38PM 41.7022 -82.7275 298° West 354 407 12,200 -1,500 Descending Cleveland Center
06:38PM 41.7203 -82.7697 300° West 339 390 12,000 -240 Descending Cleveland Center
06:39PM 41.7608 -82.8211 317° Northwest 349 402 12,000 60 Level Cleveland Center
06:39PM 41.7872 -82.8556 316° Northwest 341 392 12,100  Climbing Cleveland Center
06:40PM 41.8300 -82.9072 318° Northwest 339 390 12,000 -120 Descending Cleveland Center
06:40PM 41.8628 -82.9447 320° Northwest 336 387 12,000  Level Cleveland Center
06:41PM 41.8992 -82.9906 317° Northwest 334 384 12,000 60 Level Cleveland Center
06:41PM 41.9317 -83.0311 317° Northwest 333 383 12,100  Climbing Cleveland Center
06:42PM 41.9683 -83.0742 319° Northwest 334 384 12,000  Descending Cleveland Center
06:42PM 42.0008 -83.1119 319° Northwest 337 388 12,100  Climbing Cleveland Center
06:43PM 42.0394 -83.1581 318° Northwest 334 384 12,000 -120 Descending Cleveland Center
06:43PM 42.0700 -83.1958 317° Northwest 313 360 12,000 -300 Level Cleveland Center
06:44PM 42.1047 -83.2225 330° Northwest 316 364 11,700 -1,140 Descending Cleveland Center
06:44PM 42.1533 -83.2336 350° North 280 322 10,700 -1,620 Descending FAA TRACON SMA TRACON (SMA)
06:45PM 42.1828 -83.2289 North 272 313 10,200 -1,140 Descending FAA TRACON SMA TRACON (SMA)
06:45PM 42.2067 -83.2094 31° Northeast 261 300 9,900 -1,200 Descending FAA TRACON SMA TRACON (SMA)
06:45PM 42.2211 -83.1978 31° Northeast 264 304 9,500 -1,860 Descending FAA TRACON SMA TRACON (SMA)
06:46PM 42.2456 -83.1778 31° Northeast 267 307 8,800 -1,680 Descending FAA TRACON SMA TRACON (SMA)
06:46PM 42.2644 -83.1625 31° Northeast 259 298 8,400 -1,080 Descending FAA TRACON SMA TRACON (SMA)
06:46PM 42.2831 -83.1481 30° Northeast 256 295 8,100 -600 Descending FAA TRACON SMA TRACON (SMA)
06:47PM 42.3064 -83.1300 30° Northeast 252 290 8,000  Descending FAA TRACON SMA TRACON (SMA)
06:47PM 42.3250 -83.1161 29° Northeast 250 288 8,100 120 Climbing FAA TRACON SMA TRACON (SMA)
06:47PM 42.3433 -83.1019 30° Northeast 250 288 8,100 -480 Level FAA TRACON SMA TRACON (SMA)
06:48PM 42.3672 -83.0836 30° Northeast 254 292 7,800 -900 Descending FAA TRACON SMA TRACON (SMA)
06:48PM 42.3867 -83.0692 29° Northeast 256 295 7,500 -960 Descending FAA TRACON SMA TRACON (SMA)
06:48PM 42.4067 -83.0547 28° Northeast 261 300 7,200 -780 Descending FAA TRACON SMA TRACON (SMA)
06:49PM 42.4311 -83.0367 29° Northeast 260 299 7,000 -600 Descending FAA TRACON SMA TRACON (SMA)
06:49PM 42.4522 -83.0331 North 259 298 6,800 -780 Descending FAA TRACON SMA TRACON (SMA)
06:49PM 42.4689 -83.0486 325° Northwest 247 284 6,500 -900 Descending FAA TRACON SMA TRACON (SMA)
06:50PM 42.4750 -83.0792 285° West 218 251 6,200 -600 Descending FAA TRACON SMA TRACON (SMA)
06:50PM 42.4719 -83.1014 259° West 205 236 6,100 -360 Descending FAA TRACON SMA TRACON (SMA)
06:50PM 42.4675 -83.1278 257° West 184 212 6,000  Descending FAA TRACON SMA TRACON (SMA)
06:51PM 42.4594 -83.1444 237° Southwest 184 212 6,100  Climbing FAA TRACON SMA TRACON (SMA)
06:51PM 42.4486 -83.1642 233° Southwest 178 205 6,000 -480 Descending FAA TRACON SMA TRACON (SMA)
06:51PM 42.4333 -83.1781 214° Southwest 186 214 5,800 -780 Descending FAA TRACON SMA TRACON (SMA)
06:52PM 42.4197 -83.1867 205° Southwest 202 232 5,500 -1,260 Descending FAA TRACON SMA TRACON (SMA)
06:52PM 42.4008 -83.1994 207° Southwest 198 228 5,000 -1,500 Descending FAA TRACON SMA TRACON (SMA)
06:52PM 42.3844 -83.2122 210° Southwest 199 229 4,500 -1,200 Descending FAA TRACON SMA TRACON (SMA)
06:53PM 42.3703 -83.2231 209° Southwest 200 230 4,200 -1,080 Descending FAA TRACON SMA TRACON (SMA)
06:53PM 42.3536 -83.2350 208° Southwest 188 216 3,800 -1,080 Descending FAA TRACON SMA TRACON (SMA)
06:53PM 42.3417 -83.2447 211° Southwest 180 207 3,500 -1,080 Descending FAA TRACON SMA TRACON (SMA)
06:54PM 42.3250 -83.2564 207° Southwest 177 204 3,100 -1,080 Descending FAA TRACON SMA TRACON (SMA)
06:54PM 42.3089 -83.2681 208° Southwest 178 205 2,800 -900 Descending FAA TRACON SMA TRACON (SMA)